sensor_id;sensor_type;location;lat;lon;timestamp;pressure;altitude;pressure_sealevel;temperature;humidity
36788;BME280;22738;45.560;9.434;2023-02-19T00:03:01;100731.25;;;9.13;100.00
36788;BME280;22738;45.560;9.434;2023-02-19T00:09:43;100726.69;;;9.18;100.00
36788;BME280;22738;45.560;9.434;2023-02-19T00:16:35;100720.97;;;9.11;100.00
36788;BME280;22738;45.560;9.434;2023-02-19T00:23:16;100724.22;;;9.35;100.00
36788;BME280;22738;45.560;9.434;2023-02-19T00:29:57;100713.09;;;9.33;100.00
36788;BME280;22738;45.560;9.434;2023-02-19T00:36:40;100697.28;;;9.20;100.00
36788;BME280;22738;45.560;9.434;2023-02-19T00:43:21;100704.13;;;9.21;100.00
36788;BME280;22738;45.560;9.434;2023-02-19T00:50:02;100707.81;;;9.16;100.00
36788;BME280;22738;45.560;9.434;2023-02-19T00:56:43;100703.56;;;9.15;100.00
36788;BME280;22738;45.560;9.434;2023-02-19T01:03:24;100691.53;;;9.14;100.00
36788;BME280;22738;45.560;9.434;2023-02-19T01:10:06;100697.13;;;9.05;100.00
36788;BME280;22738;45.560;9.434;2023-02-19T01:16:47;100686.41;;;8.94;100.00
36788;BME280;22738;45.560;9.434;2023-02-19T01:23:28;100685.00;;;8.67;100.00
36788;BME280;22738;45.560;9.434;2023-02-19T01:30:09;100684.22;;;8.44;100.00
36788;BME280;22738;45.560;9.434;2023-02-19T01:36:50;100676.13;;;8.32;100.00
36788;BME280;22738;45.560;9.434;2023-02-19T01:43:32;100671.22;;;8.26;100.00
36788;BME280;22738;45.560;9.434;2023-02-19T01:50:15;100657.53;;;8.22;100.00
36788;BME280;22738;45.560;9.434;2023-02-19T01:56:56;100654.50;;;8.34;100.00
36788;BME280;22738;45.560;9.434;2023-02-19T02:03:39;100645.19;;;8.30;100.00
36788;BME280;22738;45.560;9.434;2023-02-19T02:10:21;100646.91;;;8.31;100.00
36788;BME280;22738;45.560;9.434;2023-02-19T02:30:53;100637.44;;;8.50;100.00
36788;BME280;22738;45.560;9.434;2023-02-19T02:37:41;100631.44;;;8.50;100.00
36788;BME280;22738;45.560;9.434;2023-02-19T02:44:33;100617.56;;;8.32;100.00
36788;BME280;22738;45.560;9.434;2023-02-19T02:51:22;100615.31;;;8.03;100.00
36788;BME280;22738;45.560;9.434;2023-02-19T02:58:14;100612.25;;;8.15;100.00
36788;BME280;22738;45.560;9.434;2023-02-19T03:05:03;100601.28;;;7.88;100.00
36788;BME280;22738;45.560;9.434;2023-02-19T03:12:14;100607.13;;;7.72;100.00
36788;BME280;22738;45.560;9.434;2023-02-19T03:19:18;100605.88;;;7.60;100.00
36788;BME280;22738;45.560;9.434;2023-02-19T03:26:00;100606.19;;;7.74;100.00
36788;BME280;22738;45.560;9.434;2023-02-19T03:39:49;100603.16;;;7.85;100.00
36788;BME280;22738;45.560;9.434;2023-02-19T03:53:29;100614.69;;;7.55;100.00
36788;BME280;22738;45.560;9.434;2023-02-19T04:00:14;100626.13;;;7.48;100.00
36788;BME280;22738;45.560;9.434;2023-02-19T04:06:57;100630.94;;;7.35;100.00
36788;BME280;22738;45.560;9.434;2023-02-19T04:13:50;100628.19;;;7.16;100.00
36788;BME280;22738;45.560;9.434;2023-02-19T04:20:38;100627.50;;;6.65;100.00
36788;BME280;22738;45.560;9.434;2023-02-19T04:27:20;100619.41;;;6.51;100.00
36788;BME280;22738;45.560;9.434;2023-02-19T04:34:02;100625.72;;;6.67;100.00
36788;BME280;22738;45.560;9.434;2023-02-19T04:40:44;100621.66;;;6.60;100.00
36788;BME280;22738;45.560;9.434;2023-02-19T04:47:25;100625.34;;;6.53;100.00
36788;BME280;22738;45.560;9.434;2023-02-19T04:54:06;100626.84;;;6.34;100.00
36788;BME280;22738;45.560;9.434;2023-02-19T05:00:51;100619.25;;;6.05;100.00
36788;BME280;22738;45.560;9.434;2023-02-19T05:07:32;100618.13;;;5.87;100.00
36788;BME280;22738;45.560;9.434;2023-02-19T05:14:13;100615.69;;;5.83;100.00
36788;BME280;22738;45.560;9.434;2023-02-19T05:20:56;100608.03;;;5.79;100.00
36788;BME280;22738;45.560;9.434;2023-02-19T05:27:38;100611.16;;;5.91;100.00
36788;BME280;22738;45.560;9.434;2023-02-19T05:34:19;100616.84;;;6.00;100.00
36788;BME280;22738;45.560;9.434;2023-02-19T05:41:08;100632.94;;;5.79;100.00
36788;BME280;22738;45.560;9.434;2023-02-19T05:47:49;100617.03;;;5.66;100.00
36788;BME280;22738;45.560;9.434;2023-02-19T05:54:30;100615.38;;;5.65;100.00
36788;BME280;22738;45.560;9.434;2023-02-19T06:01:20;100593.75;;;5.71;100.00
36788;BME280;22738;45.560;9.434;2023-02-19T06:08:02;100594.66;;;5.70;100.00
36788;BME280;22738;45.560;9.434;2023-02-19T06:14:44;100595.53;;;5.97;100.00
36788;BME280;22738;45.560;9.434;2023-02-19T06:21:25;100590.69;;;5.88;100.00
36788;BME280;22738;45.560;9.434;2023-02-19T06:28:06;100616.69;;;6.05;100.00
36788;BME280;22738;45.560;9.434;2023-02-19T06:34:49;100631.38;;;6.27;100.00
36788;BME280;22738;45.560;9.434;2023-02-19T06:41:30;100612.88;;;6.41;100.00
36788;BME280;22738;45.560;9.434;2023-02-19T06:48:11;100601.44;;;6.73;100.00
36788;BME280;22738;45.560;9.434;2023-02-19T06:54:52;100609.25;;;6.94;100.00
36788;BME280;22738;45.560;9.434;2023-02-19T07:01:34;100604.66;;;6.79;100.00
36788;BME280;22738;45.560;9.434;2023-02-19T07:08:16;100609.94;;;6.76;100.00
36788;BME280;22738;45.560;9.434;2023-02-19T07:14:57;100602.56;;;6.90;100.00
36788;BME280;22738;45.560;9.434;2023-02-19T07:21:38;100595.25;;;7.01;100.00
36788;BME280;22738;45.560;9.434;2023-02-19T07:28:19;100606.44;;;7.24;100.00
36788;BME280;22738;45.560;9.434;2023-02-19T07:35:00;100585.56;;;7.30;100.00
36788;BME280;22738;45.560;9.434;2023-02-19T07:41:41;100581.50;;;7.46;100.00
36788;BME280;22738;45.560;9.434;2023-02-19T07:48:22;100570.94;;;7.73;100.00
36788;BME280;22738;45.560;9.434;2023-02-19T07:55:03;100607.00;;;7.97;100.00
36788;BME280;22738;45.560;9.434;2023-02-19T08:01:45;100583.41;;;8.04;100.00
36788;BME280;22738;45.560;9.434;2023-02-19T08:08:45;100591.47;;;8.38;100.00
36788;BME280;22738;45.560;9.434;2023-02-19T08:15:26;100596.28;;;8.66;100.00
36788;BME280;22738;45.560;9.434;2023-02-19T08:22:07;100587.69;;;8.86;100.00
36788;BME280;22738;45.560;9.434;2023-02-19T08:28:48;100591.59;;;9.13;100.00
36788;BME280;22738;45.560;9.434;2023-02-19T08:35:29;100582.50;;;9.23;100.00
36788;BME280;22738;45.560;9.434;2023-02-19T08:42:10;100585.16;;;9.40;100.00
36788;BME280;22738;45.560;9.434;2023-02-19T08:48:51;100583.56;;;9.55;100.00
36788;BME280;22738;45.560;9.434;2023-02-19T08:55:33;100583.53;;;9.90;100.00
36788;BME280;22738;45.560;9.434;2023-02-19T09:02:14;100578.56;;;10.22;100.00
36788;BME280;22738;45.560;9.434;2023-02-19T09:08:55;100574.84;;;10.60;100.00
36788;BME280;22738;45.560;9.434;2023-02-19T09:15:37;100568.97;;;10.89;100.00
36788;BME280;22738;45.560;9.434;2023-02-19T09:22:18;100572.94;;;11.12;100.00
36788;BME280;22738;45.560;9.434;2023-02-19T09:28:59;100580.81;;;11.41;100.00
36788;BME280;22738;45.560;9.434;2023-02-19T09:35:40;100576.13;;;11.93;100.00
36788;BME280;22738;45.560;9.434;2023-02-19T09:42:23;100575.22;;;12.52;100.00
36788;BME280;22738;45.560;9.434;2023-02-19T09:55:52;100568.84;;;13.41;100.00
36788;BME280;22738;45.560;9.434;2023-02-19T10:02:34;100568.28;;;13.89;100.00
36788;BME280;22738;45.560;9.434;2023-02-19T10:09:24;100568.88;;;14.19;100.00
36788;BME280;22738;45.560;9.434;2023-02-19T10:16:10;100551.88;;;14.52;100.00
36788;BME280;22738;45.560;9.434;2023-02-19T10:23:05;100557.69;;;14.93;100.00
36788;BME280;22738;45.560;9.434;2023-02-19T10:29:48;100560.75;;;14.87;100.00
36788;BME280;22738;45.560;9.434;2023-02-19T10:36:39;100563.56;;;14.96;100.00
36788;BME280;22738;45.560;9.434;2023-02-19T10:43:23;100553.34;;;14.81;100.00
36788;BME280;22738;45.560;9.434;2023-02-19T10:50:37;100551.66;;;14.80;100.00
36788;BME280;22738;45.560;9.434;2023-02-19T10:57:30;100548.88;;;15.07;100.00
36788;BME280;22738;45.560;9.434;2023-02-19T11:04:16;100538.63;;;15.16;100.00
36788;BME280;22738;45.560;9.434;2023-02-19T11:10:57;100525.03;;;15.24;100.00
36788;BME280;22738;45.560;9.434;2023-02-19T11:17:38;100506.16;;;15.31;100.00
36788;BME280;22738;45.560;9.434;2023-02-19T11:24:25;100494.91;;;15.31;100.00
36788;BME280;22738;45.560;9.434;2023-02-19T11:38:10;100473.56;;;15.37;100.00
36788;BME280;22738;45.560;9.434;2023-02-19T11:52:26;100459.09;;;15.20;100.00
36788;BME280;22738;45.560;9.434;2023-02-19T12:00:19;100446.56;;;15.25;100.00
36788;BME280;22738;45.560;9.434;2023-02-19T12:14:07;100428.00;;;15.76;100.00
36788;BME280;22738;45.560;9.434;2023-02-19T12:48:49;100374.72;;;15.65;100.00
36788;BME280;22738;45.560;9.434;2023-02-19T12:55:38;100358.81;;;15.68;100.00
36788;BME280;22738;45.560;9.434;2023-02-19T13:02:45;100348.84;;;15.85;100.00
36788;BME280;22738;45.560;9.434;2023-02-19T13:09:42;100339.81;;;15.66;100.00
36788;BME280;22738;45.560;9.434;2023-02-19T13:16:27;100330.06;;;15.68;100.00
36788;BME280;22738;45.560;9.434;2023-02-19T13:23:32;100322.81;;;15.72;100.00
36788;BME280;22738;45.560;9.434;2023-02-19T13:37:33;100312.25;;;15.85;100.00
36788;BME280;22738;45.560;9.434;2023-02-19T13:44:20;100307.53;;;15.79;100.00
36788;BME280;22738;45.560;9.434;2023-02-19T13:58:52;100286.34;;;15.93;100.00
36788;BME280;22738;45.560;9.434;2023-02-19T14:06:04;100292.16;;;16.07;100.00
36788;BME280;22738;45.560;9.434;2023-02-19T14:12:46;100286.59;;;16.01;100.00
36788;BME280;22738;45.560;9.434;2023-02-19T14:26:31;100275.13;;;16.13;100.00
36788;BME280;22738;45.560;9.434;2023-02-19T14:33:20;100260.25;;;16.24;100.00
36788;BME280;22738;45.560;9.434;2023-02-19T14:40:03;100273.47;;;16.12;100.00
36788;BME280;22738;45.560;9.434;2023-02-19T14:46:51;100267.06;;;16.05;100.00
36788;BME280;22738;45.560;9.434;2023-02-19T14:53:38;100268.75;;;16.06;100.00
36788;BME280;22738;45.560;9.434;2023-02-19T15:07:09;100263.63;;;15.93;100.00
36788;BME280;22738;45.560;9.434;2023-02-19T15:14:01;100260.09;;;15.83;100.00
36788;BME280;22738;45.560;9.434;2023-02-19T15:20:45;100245.94;;;15.75;100.00
36788;BME280;22738;45.560;9.434;2023-02-19T15:27:26;100265.44;;;15.82;100.00
36788;BME280;22738;45.560;9.434;2023-02-19T15:34:15;100258.66;;;15.79;100.00
36788;BME280;22738;45.560;9.434;2023-02-19T15:40:56;100255.22;;;15.56;100.00
36788;BME280;22738;45.560;9.434;2023-02-19T15:47:48;100269.38;;;15.65;100.00
36788;BME280;22738;45.560;9.434;2023-02-19T15:54:40;100247.84;;;15.39;100.00
36788;BME280;22738;45.560;9.434;2023-02-19T16:01:25;100254.00;;;15.27;100.00
36788;BME280;22738;45.560;9.434;2023-02-19T16:14:50;100246.16;;;15.16;100.00
36788;BME280;22738;45.560;9.434;2023-02-19T16:21:31;100249.16;;;14.88;100.00
36788;BME280;22738;45.560;9.434;2023-02-19T16:28:24;100274.66;;;14.73;100.00
36788;BME280;22738;45.560;9.434;2023-02-19T16:35:38;100273.25;;;14.57;100.00
36788;BME280;22738;45.560;9.434;2023-02-19T16:42:22;100273.41;;;14.19;100.00
36788;BME280;22738;45.560;9.434;2023-02-19T16:49:03;100283.06;;;13.93;100.00
36788;BME280;22738;45.560;9.434;2023-02-19T16:55:44;100272.75;;;13.79;100.00
36788;BME280;22738;45.560;9.434;2023-02-19T17:02:25;100301.25;;;13.70;100.00
36788;BME280;22738;45.560;9.434;2023-02-19T17:09:07;100321.78;;;13.62;100.00
36788;BME280;22738;45.560;9.434;2023-02-19T17:15:48;100331.03;;;13.40;100.00
36788;BME280;22738;45.560;9.434;2023-02-19T17:22:29;100339.75;;;13.14;100.00
36788;BME280;22738;45.560;9.434;2023-02-19T17:29:13;100357.94;;;12.75;100.00
36788;BME280;22738;45.560;9.434;2023-02-19T17:35:54;100361.09;;;12.39;100.00
36788;BME280;22738;45.560;9.434;2023-02-19T17:42:35;100371.09;;;12.04;100.00
36788;BME280;22738;45.560;9.434;2023-02-19T17:49:19;100387.22;;;11.67;100.00
36788;BME280;22738;45.560;9.434;2023-02-19T17:56:00;100370.66;;;11.40;100.00
36788;BME280;22738;45.560;9.434;2023-02-19T18:02:41;100377.44;;;11.27;100.00
36788;BME280;22738;45.560;9.434;2023-02-19T18:09:22;100392.25;;;10.95;100.00
36788;BME280;22738;45.560;9.434;2023-02-19T18:16:04;100394.00;;;11.10;100.00
36788;BME280;22738;45.560;9.434;2023-02-19T18:22:45;100411.38;;;11.24;100.00
36788;BME280;22738;45.560;9.434;2023-02-19T18:29:26;100423.50;;;10.62;100.00
36788;BME280;22738;45.560;9.434;2023-02-19T18:36:10;100451.34;;;10.59;100.00
36788;BME280;22738;45.560;9.434;2023-02-19T18:42:52;100451.91;;;10.33;100.00
36788;BME280;22738;45.560;9.434;2023-02-19T18:49:33;100466.88;;;10.11;100.00
36788;BME280;22738;45.560;9.434;2023-02-19T18:56:14;100481.97;;;9.85;100.00
36788;BME280;22738;45.560;9.434;2023-02-19T19:02:56;100479.44;;;9.84;100.00
36788;BME280;22738;45.560;9.434;2023-02-19T19:09:38;100489.28;;;9.77;100.00
36788;BME280;22738;45.560;9.434;2023-02-19T19:16:26;100497.66;;;9.82;100.00
36788;BME280;22738;45.560;9.434;2023-02-19T19:23:07;100505.28;;;9.85;100.00
36788;BME280;22738;45.560;9.434;2023-02-19T19:29:48;100528.34;;;9.90;100.00
36788;BME280;22738;45.560;9.434;2023-02-19T19:36:29;100540.75;;;9.66;100.00
36788;BME280;22738;45.560;9.434;2023-02-19T19:43:11;100552.16;;;9.62;100.00
36788;BME280;22738;45.560;9.434;2023-02-19T19:49:53;100554.69;;;9.45;100.00
36788;BME280;22738;45.560;9.434;2023-02-19T19:56:42;100580.75;;;9.42;100.00
36788;BME280;22738;45.560;9.434;2023-02-19T20:03:23;100592.41;;;9.32;100.00
36788;BME280;22738;45.560;9.434;2023-02-19T20:10:06;100575.78;;;9.19;100.00
36788;BME280;22738;45.560;9.434;2023-02-19T20:16:48;100582.50;;;9.23;100.00
36788;BME280;22738;45.560;9.434;2023-02-19T20:23:30;100604.94;;;9.04;100.00
36788;BME280;22738;45.560;9.434;2023-02-19T20:30:14;100619.84;;;9.17;100.00
36788;BME280;22738;45.560;9.434;2023-02-19T20:36:58;100632.81;;;9.34;100.00
36788;BME280;22738;45.560;9.434;2023-02-19T20:43:39;100643.19;;;9.53;100.00
36788;BME280;22738;45.560;9.434;2023-02-19T20:50:20;100639.69;;;9.17;100.00
36788;BME280;22738;45.560;9.434;2023-02-19T20:57:04;100669.50;;;9.05;100.00
36788;BME280;22738;45.560;9.434;2023-02-19T21:03:46;100674.34;;;9.13;100.00
36788;BME280;22738;45.560;9.434;2023-02-19T21:10:27;100680.72;;;9.06;100.00
36788;BME280;22738;45.560;9.434;2023-02-19T21:17:08;100677.69;;;8.96;100.00
36788;BME280;22738;45.560;9.434;2023-02-19T21:23:53;100684.66;;;8.94;100.00
36788;BME280;22738;45.560;9.434;2023-02-19T21:30:36;100678.16;;;8.86;100.00
36788;BME280;22738;45.560;9.434;2023-02-19T21:37:17;100665.84;;;8.91;100.00
36788;BME280;22738;45.560;9.434;2023-02-19T21:43:58;100685.19;;;8.82;100.00
36788;BME280;22738;45.560;9.434;2023-02-19T21:50:39;100679.50;;;8.94;100.00
36788;BME280;22738;45.560;9.434;2023-02-19T21:57:21;100682.91;;;8.95;100.00
36788;BME280;22738;45.560;9.434;2023-02-19T22:04:03;100680.06;;;9.01;100.00
36788;BME280;22738;45.560;9.434;2023-02-19T22:10:45;100695.00;;;8.94;100.00
36788;BME280;22738;45.560;9.434;2023-02-19T22:17:26;100702.69;;;8.76;100.00
36788;BME280;22738;45.560;9.434;2023-02-19T22:24:14;100703.34;;;8.81;100.00
36788;BME280;22738;45.560;9.434;2023-02-19T22:30:57;100711.31;;;8.76;100.00
36788;BME280;22738;45.560;9.434;2023-02-19T22:37:38;100715.88;;;8.70;100.00
36788;BME280;22738;45.560;9.434;2023-02-19T22:44:19;100721.94;;;8.69;100.00
36788;BME280;22738;45.560;9.434;2023-02-19T22:51:00;100732.94;;;8.53;100.00
36788;BME280;22738;45.560;9.434;2023-02-19T22:57:42;100746.06;;;8.47;100.00
36788;BME280;22738;45.560;9.434;2023-02-19T23:04:23;100744.53;;;8.43;100.00
36788;BME280;22738;45.560;9.434;2023-02-19T23:11:05;100752.69;;;8.54;100.00
36788;BME280;22738;45.560;9.434;2023-02-19T23:17:46;100753.53;;;8.55;100.00
36788;BME280;22738;45.560;9.434;2023-02-19T23:24:27;100757.03;;;8.54;100.00
36788;BME280;22738;45.560;9.434;2023-02-19T23:31:08;100761.47;;;8.50;100.00
36788;BME280;22738;45.560;9.434;2023-02-19T23:37:49;100754.63;;;8.49;100.00
36788;BME280;22738;45.560;9.434;2023-02-19T23:44:30;100759.38;;;8.38;100.00
36788;BME280;22738;45.560;9.434;2023-02-19T23:51:11;100757.59;;;8.40;100.00
36788;BME280;22738;45.560;9.434;2023-02-19T23:57:52;100760.88;;;8.44;100.00
